createdAt,value
2018-06-10T00:09:11.010Z,0
2018-06-10T00:19:26.699Z,0
2018-06-10T00:29:41.672Z,0
2018-06-10T00:39:56.606Z,0
2018-06-10T00:50:10.356Z,0
2018-06-10T01:00:25.906Z,0
2018-06-10T01:10:39.593Z,0
2018-06-10T01:20:54.764Z,0
2018-06-10T01:31:08.587Z,0
2018-06-10T01:41:23.570Z,0
2018-06-10T01:51:38.882Z,0
2018-06-10T02:01:52.993Z,0
2018-06-10T02:12:07.022Z,0
2018-06-10T02:22:21.168Z,0
2018-06-10T02:32:34.867Z,0
2018-06-10T02:42:48.809Z,0
2018-06-10T02:53:02.967Z,4
2018-06-10T03:03:16.756Z,12
2018-06-10T03:13:31.475Z,32
2018-06-10T03:23:46.382Z,76
2018-06-10T03:34:00.377Z,140
2018-06-10T03:44:14.319Z,268
2018-06-10T03:54:28.976Z,512
2018-06-10T04:04:43.729Z,752
2018-06-10T04:14:58.483Z,1084
2018-06-10T04:25:12.630Z,1708
2018-06-10T04:35:27.097Z,2624
2018-06-10T04:45:40.899Z,3792
2018-06-10T04:55:55.958Z,5120
2018-06-10T05:06:09.861Z,5020
2018-06-10T05:16:23.936Z,6020
2018-06-10T05:26:37.644Z,7144
2018-06-10T05:36:51.475Z,7368
2018-06-10T05:47:06.500Z,6660
2018-06-10T05:57:20.610Z,5804
2018-06-10T06:07:35.691Z,6064
2018-06-10T06:17:51.391Z,5480
2018-06-10T06:28:06.718Z,6380
2018-06-10T06:38:22.148Z,9780
2018-06-10T06:48:36.975Z,13628
2018-06-10T06:58:52.119Z,17440
2018-06-10T07:09:07.033Z,23040
2018-06-10T07:19:21.598Z,26688
2018-06-10T07:29:35.954Z,27456
2018-06-10T07:39:51.696Z,32768
2018-06-10T07:50:06.502Z,36288
2018-06-10T08:00:20.971Z,40352
2018-06-10T08:10:35.742Z,42016
2018-06-10T08:20:50.794Z,36576
2018-06-10T08:31:05.835Z,25152
2018-06-10T08:41:20.535Z,35904
2018-06-10T08:51:35.433Z,33888
2018-06-10T09:01:50.799Z,46624
2018-06-10T09:12:05.463Z,43392
2018-06-10T09:22:20.493Z,111296
2018-06-10T09:32:35.688Z,48544
2018-06-10T09:42:49.526Z,39040
2018-06-10T09:53:03.742Z,89280
2018-06-10T10:03:18.324Z,101408
2018-06-10T10:13:33.268Z,43840
2018-06-10T10:23:48.178Z,43040
2018-06-10T10:34:02.914Z,87936
2018-06-10T10:44:17.132Z,42624
2018-06-10T10:54:31.339Z,108224
2018-06-10T11:04:45.868Z,56928
2018-06-10T11:14:59.776Z,41440
2018-06-10T11:25:15.601Z,86176
2018-06-10T11:35:31.253Z,54912
2018-06-10T11:45:46.274Z,82016
2018-06-10T11:56:00.287Z,95840
2018-06-10T12:06:14.504Z,91744
2018-06-10T12:16:29.999Z,87552
2018-06-10T12:26:45.677Z,35008
2018-06-10T12:37:00.187Z,50816
2018-06-10T12:47:15.135Z,54720
2018-06-10T12:57:30.671Z,53824
2018-06-10T13:07:45.517Z,49472
2018-06-10T13:17:59.472Z,108640
2018-06-10T13:28:14.765Z,96000
2018-06-10T13:38:30.462Z,30048
2018-06-10T13:48:44.583Z,46912
2018-06-10T13:58:59.269Z,61088
2018-06-10T14:09:13.952Z,91136
2018-06-10T14:19:29.175Z,85312
2018-06-10T14:29:44.436Z,84096
2018-06-10T14:39:59.565Z,82048
2018-06-10T14:50:14.593Z,27136
2018-06-10T15:00:29.585Z,69056
2018-06-10T15:10:44.542Z,28480
2018-06-10T15:20:58.635Z,65792
2018-06-10T15:31:14.493Z,66048
2018-06-10T15:41:29.786Z,27648
2018-06-10T15:51:45.016Z,58912
2018-06-10T16:02:00.534Z,49760
2018-06-10T16:12:15.039Z,49664
2018-06-10T16:22:30.600Z,51296
2018-06-10T16:32:44.846Z,35744
2018-06-10T16:43:00.594Z,42240
2018-06-10T16:53:15.468Z,36064
2018-06-10T17:03:29.574Z,36832
2018-06-10T17:13:44.037Z,30848
2018-06-10T17:23:58.468Z,27616
2018-06-10T17:34:13.889Z,25344
2018-06-10T17:44:28.771Z,20640
2018-06-10T17:54:42.834Z,11952
2018-06-10T18:04:58.665Z,11856
2018-06-10T18:15:14.057Z,10200
2018-06-10T18:25:28.656Z,9548
2018-06-10T18:35:44.402Z,8356
2018-06-10T18:45:58.548Z,6456
2018-06-10T18:56:13.314Z,5068
2018-06-10T19:06:28.331Z,3708
2018-06-10T19:16:43.835Z,2604
2018-06-10T19:26:59.786Z,1580
2018-06-10T19:37:13.721Z,868
2018-06-10T19:47:28.954Z,432
2018-06-10T19:57:43.252Z,184
2018-06-10T20:07:58.691Z,64
2018-06-10T20:18:13.401Z,20
2018-06-10T20:28:29.090Z,8
2018-06-10T20:38:43.295Z,4
2018-06-10T20:48:57.900Z,0
2018-06-10T20:59:12.866Z,0
2018-06-10T21:09:26.895Z,0
2018-06-10T21:19:42.792Z,0
2018-06-10T21:29:56.895Z,0
2018-06-10T21:40:11.287Z,0
2018-06-10T21:50:26.118Z,0
2018-06-10T22:00:41.012Z,0
2018-06-10T22:10:55.697Z,0
2018-06-10T22:21:09.793Z,0
2018-06-10T22:31:23.581Z,0
2018-06-10T22:41:37.856Z,0
2018-06-10T22:51:51.586Z,0
2018-06-10T23:02:05.794Z,0
2018-06-10T23:12:21.499Z,0
2018-06-10T23:22:36.158Z,0
2018-06-10T23:32:50.838Z,0
2018-06-10T23:43:06.279Z,0
2018-06-10T23:53:21.415Z,0
